createdAt,value
2022-09-12T00:01:34.771Z,100.00
2022-09-12T00:04:03.484Z,100.00
2022-09-12T00:06:37.289Z,100.00
2022-09-12T00:09:10.629Z,100.00
2022-09-12T00:11:44.396Z,100.00
2022-09-12T00:14:18.379Z,100.00
2022-09-12T00:16:47.156Z,100.00
2022-09-12T00:19:15.732Z,100.00
2022-09-12T00:21:44.514Z,100.00
2022-09-12T00:24:13.149Z,100.00
2022-09-12T00:26:42.079Z,100.00
2022-09-12T00:29:16.100Z,100.00
2022-09-12T00:31:44.695Z,100.00
2022-09-12T00:34:13.302Z,100.00
2022-09-12T00:36:42.147Z,100.00
2022-09-12T00:39:18.077Z,100.00
2022-09-12T00:41:47.227Z,100.00
2022-09-12T00:44:24.397Z,100.00
2022-09-12T00:47:01.641Z,100.00
2022-09-12T00:49:31.665Z,100.00
2022-09-12T00:52:11.431Z,100.00
2022-09-12T00:54:45.228Z,100.00
2022-09-12T00:57:16.623Z,100.00
2022-09-12T00:59:54.704Z,100.00
2022-09-12T01:02:23.681Z,100.00
2022-09-12T01:04:53.255Z,100.00
2022-09-12T01:07:22.701Z,100.00
2022-09-12T01:09:51.695Z,100.00
2022-09-12T01:12:20.499Z,100.00
2022-09-12T01:14:49.008Z,100.00
2022-09-12T01:17:17.935Z,100.00
2022-09-12T01:20:29.648Z,100.00
2022-09-12T01:23:08.597Z,100.00
2022-09-12T01:26:11.390Z,100.00
2022-09-12T01:29:04.862Z,100.00
2022-09-12T01:31:42.454Z,100.00
2022-09-12T01:34:27.444Z,100.00
2022-09-12T01:37:02.233Z,100.00
2022-09-12T01:39:45.048Z,100.00
2022-09-12T01:42:13.612Z,100.00
2022-09-12T01:44:56.290Z,100.00
2022-09-12T01:47:51.691Z,100.00
2022-09-12T01:50:28.433Z,100.00
2022-09-12T01:53:03.346Z,100.00
2022-09-12T01:55:37.498Z,100.00
2022-09-12T01:58:22.138Z,99.23
2022-09-12T02:01:11.606Z,99.22
2022-09-12T02:04:05.806Z,99.43
2022-09-12T02:06:49.697Z,99.71
2022-09-12T02:09:24.506Z,99.80
2022-09-12T02:11:59.310Z,100.00
2022-09-12T02:14:32.604Z,99.59
2022-09-12T02:17:14.973Z,98.46
2022-09-12T02:19:49.456Z,98.24
2022-09-12T02:22:21.560Z,98.48
2022-09-12T02:24:55.515Z,99.31
2022-09-12T02:27:41.411Z,99.22
2022-09-12T02:30:10.859Z,99.30
2022-09-12T02:32:46.488Z,99.54
2022-09-12T02:35:32.166Z,99.43
2022-09-12T02:38:26.902Z,99.58
2022-09-12T02:40:56.686Z,99.64
2022-09-12T02:43:25.562Z,99.15
2022-09-12T02:45:55.054Z,99.35
2022-09-12T02:48:29.349Z,98.79
2022-09-12T02:50:58.415Z,98.54
2022-09-12T02:53:28.142Z,97.70
2022-09-12T02:55:56.917Z,97.81
2022-09-12T02:58:30.921Z,97.21
2022-09-12T03:01:13.444Z,97.88
2022-09-12T03:04:15.859Z,97.99
2022-09-12T03:06:44.224Z,98.07
2022-09-12T03:09:19.797Z,98.15
2022-09-12T03:12:04.146Z,98.34
2022-09-12T03:15:24.195Z,96.95
2022-09-12T03:18:20.398Z,97.85
2022-09-12T03:21:17.707Z,95.86
2022-09-12T03:24:25.823Z,94.88
2022-09-12T03:27:09.782Z,95.59
2022-09-12T03:29:41.766Z,96.09
2022-09-12T03:32:10.426Z,97.37
2022-09-12T03:34:38.981Z,95.74
2022-09-12T03:37:07.824Z,95.93
2022-09-12T03:39:36.381Z,94.73
2022-09-12T03:42:05.186Z,95.17
2022-09-12T03:44:33.674Z,95.02
2022-09-12T03:47:02.272Z,95.08
2022-09-12T03:49:30.724Z,93.55
2022-09-12T03:51:59.184Z,92.07
2022-09-12T03:54:27.840Z,91.62
2022-09-12T03:56:56.425Z,92.70
2022-09-12T03:59:24.933Z,92.87
2022-09-12T04:01:53.455Z,92.02
2022-09-12T04:04:21.963Z,90.81
2022-09-12T04:06:50.708Z,90.98
2022-09-12T04:09:19.264Z,92.40
2022-09-12T04:11:47.782Z,91.78
2022-09-12T04:14:16.307Z,91.92
2022-09-12T04:16:44.874Z,92.13
2022-09-12T04:19:13.939Z,92.70
2022-09-12T04:21:42.525Z,92.30
2022-09-12T04:24:11.012Z,89.95
2022-09-12T04:26:39.669Z,89.70
2022-09-12T04:29:08.132Z,88.10
2022-09-12T04:31:36.659Z,88.24
2022-09-12T04:34:06.574Z,88.12
2022-09-12T04:36:35.471Z,89.13
2022-09-12T04:39:05.453Z,88.19
2022-09-12T04:41:36.672Z,89.29
2022-09-12T04:44:14.192Z,89.15
2022-09-12T04:46:46.006Z,88.16
2022-09-12T04:49:17.630Z,86.86
2022-09-12T04:52:02.112Z,87.17
2022-09-12T04:57:17.008Z,87.23
2022-09-12T04:59:45.418Z,88.81
2022-09-12T05:02:13.931Z,88.07
2022-09-12T05:07:11.388Z,87.61
2022-09-12T05:09:39.957Z,86.52
2022-09-12T05:12:09.469Z,85.33
2022-09-12T05:14:37.984Z,85.40
2022-09-12T05:17:07.110Z,86.05
2022-09-12T05:19:35.872Z,86.09
2022-09-12T05:22:06.051Z,86.67
2022-09-12T05:24:34.829Z,86.22
2022-09-12T05:27:05.771Z,86.65
2022-09-12T05:29:35.146Z,88.43
2022-09-12T05:32:05.753Z,87.11
2022-09-12T05:34:34.253Z,87.34
2022-09-12T05:37:02.825Z,87.59
2022-09-12T05:39:31.380Z,87.18
2022-09-12T05:41:59.886Z,87.93
2022-09-12T05:44:29.262Z,88.13
2022-09-12T05:46:57.788Z,88.25
2022-09-12T05:49:26.441Z,87.94
2022-09-12T05:51:54.979Z,88.60
2022-09-12T05:54:24.357Z,88.53
2022-09-12T05:56:54.022Z,88.23
2022-09-12T05:59:25.134Z,88.02
2022-09-12T06:01:53.760Z,86.86
2022-09-12T06:04:22.277Z,86.18
2022-09-12T06:06:51.273Z,86.07
2022-09-12T06:09:20.140Z,88.70
2022-09-12T06:11:48.822Z,87.05
2022-09-12T06:14:18.681Z,86.15
2022-09-12T06:16:48.494Z,85.82
2022-09-12T06:19:22.619Z,86.21
2022-09-12T06:21:52.695Z,87.34
2022-09-12T06:24:22.719Z,88.27
2022-09-12T06:26:53.735Z,87.36
2022-09-12T06:29:23.023Z,86.07
2022-09-12T06:31:51.795Z,86.23
2022-09-12T06:34:21.025Z,87.24
2022-09-12T06:36:53.969Z,87.95
2022-09-12T06:39:24.801Z,88.00
2022-09-12T06:41:54.007Z,87.26
2022-09-12T06:44:24.551Z,89.37
2022-09-12T06:46:54.837Z,90.52
2022-09-12T06:49:23.303Z,89.50
2022-09-12T06:51:53.423Z,89.80
2022-09-12T06:54:22.384Z,87.42
2022-09-12T06:56:51.011Z,89.88
2022-09-12T06:59:21.177Z,90.33
2022-09-12T07:01:49.756Z,89.57
2022-09-12T07:04:18.198Z,88.89
2022-09-12T07:06:46.736Z,89.18
2022-09-12T07:09:19.508Z,89.92
2022-09-12T07:11:48.404Z,90.67
2022-09-12T07:14:17.350Z,91.54
2022-09-12T07:16:46.097Z,91.94
2022-09-12T07:19:14.691Z,91.85
2022-09-12T07:21:43.594Z,92.15
2022-09-12T07:24:12.443Z,91.50
2022-09-12T07:26:43.087Z,91.23
2022-09-12T07:29:37.389Z,92.00
2022-09-12T07:32:07.166Z,92.19
2022-09-12T07:34:36.614Z,92.20
2022-09-12T07:37:05.628Z,92.05
2022-09-12T07:39:34.275Z,91.61
2022-09-12T07:42:05.008Z,92.17
2022-09-12T07:44:33.685Z,90.86
2022-09-12T07:47:02.660Z,90.54
2022-09-12T07:49:31.623Z,90.47
2022-09-12T07:52:00.132Z,91.64
2022-09-12T07:54:28.808Z,90.76
2022-09-12T07:56:57.674Z,91.46
2022-09-12T07:59:51.017Z,89.89
2022-09-12T08:02:17.350Z,89.65
2022-09-12T08:04:46.511Z,90.55
2022-09-12T08:07:15.047Z,89.51
2022-09-12T08:09:43.546Z,90.03
2022-09-12T08:12:12.087Z,90.83
2022-09-12T08:14:40.603Z,91.26
2022-09-12T08:17:09.170Z,90.82
2022-09-12T08:19:38.609Z,91.66
2022-09-12T08:22:07.382Z,92.24
2022-09-12T08:24:35.970Z,91.26
2022-09-12T08:27:04.446Z,90.22
2022-09-12T08:29:33.069Z,90.38
2022-09-12T08:32:01.733Z,90.18
2022-09-12T08:34:30.163Z,89.05
2022-09-12T08:36:58.809Z,90.55
2022-09-12T08:39:27.526Z,89.34
2022-09-12T08:42:07.270Z,90.99
2022-09-12T08:44:54.672Z,89.85
2022-09-12T08:47:36.034Z,89.56
2022-09-12T08:50:22.070Z,90.51
2022-09-12T08:52:59.650Z,89.68
2022-09-12T08:55:38.472Z,91.57
2022-09-12T08:58:22.330Z,93.27
2022-09-12T09:01:15.074Z,92.15
2022-09-12T09:03:50.096Z,91.93
2022-09-12T09:06:53.275Z,92.08
2022-09-12T09:09:30.349Z,92.79
2022-09-12T09:12:45.660Z,92.26
2022-09-12T09:15:34.826Z,92.99
2022-09-12T09:18:07.509Z,92.32
2022-09-12T09:20:45.268Z,91.75
2022-09-12T09:23:34.475Z,91.85
2022-09-12T09:26:10.678Z,93.14
2022-09-12T09:28:48.568Z,91.63
2022-09-12T09:31:22.795Z,91.93
2022-09-12T09:33:53.428Z,92.36
2022-09-12T09:36:31.330Z,92.24
2022-09-12T09:39:07.412Z,92.09
2022-09-12T09:42:18.053Z,92.15
2022-09-12T09:44:50.081Z,91.37
2022-09-12T09:47:20.767Z,91.31
2022-09-12T09:49:49.403Z,91.94
2022-09-12T09:52:22.337Z,92.46
2022-09-12T09:54:59.527Z,93.02
2022-09-12T09:57:37.244Z,91.67
2022-09-12T10:00:26.005Z,92.07
2022-09-12T10:03:29.844Z,92.59
2022-09-12T10:06:38.082Z,92.90
2022-09-12T10:09:14.293Z,93.12
2022-09-12T10:11:45.880Z,92.24
2022-09-12T10:14:42.279Z,92.00
2022-09-12T10:17:34.545Z,92.39
2022-09-12T10:20:20.941Z,92.28
2022-09-12T10:22:51.146Z,93.52
2022-09-12T10:25:22.210Z,92.90
2022-09-12T10:28:02.361Z,92.61
2022-09-12T10:30:30.967Z,92.72
2022-09-12T10:33:09.398Z,93.59
2022-09-12T10:35:51.018Z,93.32
2022-09-12T10:38:27.271Z,93.05
2022-09-12T10:41:07.651Z,93.92
2022-09-12T10:43:38.374Z,93.51
2022-09-12T10:46:33.048Z,95.23
2022-09-12T10:49:29.767Z,94.56
2022-09-12T10:52:17.786Z,94.12
2022-09-12T10:54:46.912Z,94.29
2022-09-12T10:57:30.842Z,94.77
2022-09-12T11:00:17.911Z,94.99
2022-09-12T11:03:12.101Z,95.38
2022-09-12T11:06:01.671Z,95.81
2022-09-12T11:08:46.766Z,95.88
2022-09-12T11:11:34.401Z,95.45
2022-09-12T11:14:20.917Z,94.78
2022-09-12T11:17:13.500Z,94.80
2022-09-12T11:20:03.485Z,95.26
2022-09-12T11:22:42.627Z,95.28
2022-09-12T11:25:36.171Z,95.46
2022-09-12T11:28:24.055Z,96.02
2022-09-12T11:31:09.997Z,96.25
2022-09-12T11:33:48.069Z,97.25
2022-09-12T11:36:58.121Z,97.34
2022-09-12T11:39:39.847Z,97.69
2022-09-12T11:42:20.831Z,98.03
2022-09-12T11:45:13.342Z,97.93
2022-09-12T11:47:46.623Z,98.40
2022-09-12T11:50:41.972Z,98.30
2022-09-12T11:53:16.226Z,98.49
2022-09-12T11:56:10.509Z,98.45
2022-09-12T11:58:42.952Z,98.36
2022-09-12T12:01:26.402Z,98.63
2022-09-12T12:03:56.572Z,98.99
2022-09-12T12:06:29.131Z,99.31
2022-09-12T12:08:58.635Z,98.48
2022-09-12T12:11:33.255Z,98.53
2022-09-12T12:14:18.987Z,98.98
2022-09-12T12:16:48.499Z,99.27
2022-09-12T12:19:16.909Z,99.65
2022-09-12T12:21:48.733Z,99.02
2022-09-12T12:24:35.439Z,99.14
2022-09-12T12:27:25.196Z,99.52
2022-09-12T12:29:53.641Z,99.82
2022-09-12T12:32:24.065Z,99.72
2022-09-12T12:35:02.606Z,100.00
2022-09-12T12:37:31.013Z,100.00
2022-09-12T12:40:08.750Z,100.00
2022-09-12T12:42:37.421Z,100.00
2022-09-12T12:45:05.876Z,100.00
2022-09-12T12:47:48.557Z,100.00
2022-09-12T12:50:22.790Z,100.00
2022-09-12T12:52:51.174Z,100.00
2022-09-12T12:55:27.558Z,100.00
2022-09-12T12:57:59.062Z,100.00
2022-09-12T13:00:28.818Z,100.00
2022-09-12T13:03:08.448Z,100.00
2022-09-12T13:05:48.419Z,100.00
2022-09-12T13:08:19.903Z,100.00
2022-09-12T13:11:19.243Z,100.00
2022-09-12T13:13:59.211Z,100.00
2022-09-12T13:16:35.316Z,100.00
2022-09-12T13:19:18.379Z,100.00
2022-09-12T13:22:07.403Z,100.00
2022-09-12T13:24:47.102Z,100.00
2022-09-12T13:27:24.233Z,100.00
2022-09-12T13:30:14.562Z,100.00
2022-09-12T13:32:45.084Z,100.00
2022-09-12T13:35:26.919Z,100.00
2022-09-12T13:38:07.754Z,100.00
2022-09-12T13:41:02.066Z,100.00
2022-09-12T13:43:49.779Z,100.00
2022-09-12T13:46:31.135Z,100.00
2022-09-12T13:49:03.095Z,100.00
2022-09-12T13:51:33.601Z,100.00
2022-09-12T13:54:07.082Z,100.00
2022-09-12T13:56:35.701Z,100.00
2022-09-12T13:59:04.674Z,100.00
2022-09-12T14:01:42.264Z,100.00
2022-09-12T14:04:36.567Z,100.00
2022-09-12T14:07:12.712Z,100.00
2022-09-12T14:09:44.708Z,100.00
2022-09-12T14:12:44.508Z,100.00
2022-09-12T14:15:28.413Z,100.00
2022-09-12T14:18:02.851Z,100.00
2022-09-12T14:20:33.724Z,100.00
2022-09-12T14:23:33.217Z,100.00
2022-09-12T14:26:07.637Z,100.00
2022-09-12T14:28:38.635Z,100.00
2022-09-12T14:31:14.283Z,100.00
2022-09-12T14:33:51.562Z,100.00
2022-09-12T14:36:35.237Z,100.00
2022-09-12T14:39:26.436Z,100.00
2022-09-12T14:42:07.721Z,100.00
2022-09-12T14:44:37.834Z,100.00
2022-09-12T14:47:17.106Z,100.00
2022-09-12T14:49:45.744Z,100.00
2022-09-12T14:52:25.132Z,100.00
2022-09-12T14:55:02.444Z,100.00
2022-09-12T14:57:36.125Z,100.00
2022-09-12T15:00:13.976Z,100.00
2022-09-12T15:02:47.093Z,100.00
2022-09-12T15:05:22.815Z,100.00
2022-09-12T15:07:58.017Z,100.00
2022-09-12T15:10:39.218Z,100.00
2022-09-12T15:13:07.681Z,100.00
2022-09-12T15:15:40.732Z,100.00
2022-09-12T15:18:09.713Z,100.00
2022-09-12T15:20:43.587Z,100.00
2022-09-12T15:23:37.035Z,100.00
2022-09-12T15:26:06.023Z,100.00
2022-09-12T15:28:35.402Z,100.00
2022-09-12T15:31:09.765Z,100.00
2022-09-12T15:33:38.313Z,100.00
2022-09-12T15:36:16.821Z,100.00
2022-09-12T15:38:46.747Z,100.00
2022-09-12T15:41:22.019Z,100.00
2022-09-12T15:43:51.536Z,100.00
2022-09-12T15:46:21.293Z,100.00
2022-09-12T15:48:50.167Z,100.00
2022-09-12T15:51:22.094Z,100.00
2022-09-12T15:53:52.275Z,100.00
2022-09-12T15:56:22.531Z,100.00
2022-09-12T15:58:59.884Z,100.00
2022-09-12T16:01:30.125Z,100.00
2022-09-12T16:03:58.974Z,100.00
2022-09-12T16:06:30.608Z,100.00
2022-09-12T16:09:02.233Z,100.00
2022-09-12T16:11:30.779Z,100.00
2022-09-12T16:13:59.422Z,100.00
2022-09-12T16:16:27.973Z,100.00
2022-09-12T16:18:56.471Z,100.00
2022-09-12T16:21:25.395Z,100.00
2022-09-12T16:23:54.253Z,100.00
2022-09-12T16:26:22.801Z,100.00
2022-09-12T16:29:01.429Z,100.00
2022-09-12T16:31:30.118Z,100.00
2022-09-12T16:33:58.728Z,100.00
2022-09-12T16:36:27.144Z,100.00
2022-09-12T16:38:55.900Z,100.00
2022-09-12T16:41:26.503Z,100.00
2022-09-12T16:43:55.910Z,100.00
2022-09-12T16:46:27.367Z,100.00
2022-09-12T16:48:57.936Z,100.00
2022-09-12T16:51:33.433Z,100.00
2022-09-12T16:54:02.038Z,100.00
2022-09-12T16:56:31.104Z,100.00
2022-09-12T16:58:59.773Z,100.00
2022-09-12T17:01:28.711Z,100.00
2022-09-12T17:03:58.715Z,100.00
2022-09-12T17:06:28.876Z,100.00
2022-09-12T17:09:05.269Z,100.00
2022-09-12T17:11:37.444Z,100.00
2022-09-12T17:14:09.042Z,100.00
2022-09-12T17:16:40.965Z,100.00
2022-09-12T17:19:13.285Z,100.00
2022-09-12T17:21:41.912Z,100.00
2022-09-12T17:24:10.429Z,100.00
2022-09-12T17:26:38.974Z,100.00
2022-09-12T17:29:07.779Z,100.00
2022-09-12T17:31:36.482Z,100.00
2022-09-12T17:34:05.214Z,100.00
2022-09-12T17:36:35.159Z,100.00
2022-09-12T17:39:05.243Z,100.00
2022-09-12T17:41:34.379Z,100.00
2022-09-12T17:44:04.033Z,100.00
2022-09-12T17:46:42.295Z,100.00
2022-09-12T17:49:18.128Z,100.00
2022-09-12T17:51:46.824Z,100.00
2022-09-12T17:54:17.962Z,100.00
2022-09-12T17:56:51.381Z,100.00
2022-09-12T17:59:22.526Z,100.00
2022-09-12T18:02:09.454Z,100.00
2022-09-12T18:04:38.521Z,100.00
2022-09-12T18:07:07.116Z,100.00
2022-09-12T18:09:37.300Z,100.00
2022-09-12T18:12:07.059Z,100.00
2022-09-12T18:14:36.071Z,100.00
2022-09-12T18:17:05.597Z,100.00
2022-09-12T18:19:34.400Z,100.00
2022-09-12T18:22:03.855Z,100.00
2022-09-12T18:24:32.351Z,100.00
2022-09-12T18:27:02.860Z,100.00
2022-09-12T18:29:31.577Z,100.00
2022-09-12T18:32:00.343Z,100.00
2022-09-12T18:34:29.297Z,100.00
2022-09-12T18:36:57.842Z,100.00
2022-09-12T18:39:27.835Z,100.00
2022-09-12T18:41:56.755Z,100.00
2022-09-12T18:44:25.267Z,100.00
2022-09-12T18:46:53.987Z,100.00
2022-09-12T18:49:22.542Z,100.00
2022-09-12T18:51:51.509Z,100.00
2022-09-12T18:54:20.424Z,100.00
2022-09-12T18:56:49.041Z,100.00
2022-09-12T18:59:17.763Z,100.00
2022-09-12T19:01:46.448Z,100.00
2022-09-12T19:04:17.067Z,100.00
2022-09-12T19:06:48.171Z,100.00
2022-09-12T19:09:19.850Z,100.00
2022-09-12T19:11:53.639Z,100.00
2022-09-12T19:14:24.706Z,100.00
2022-09-12T19:16:53.823Z,100.00
2022-09-12T19:19:22.936Z,100.00
2022-09-12T19:21:51.403Z,100.00
2022-09-12T19:24:20.155Z,100.00
2022-09-12T19:26:49.436Z,100.00
2022-09-12T19:29:18.690Z,100.00
2022-09-12T19:31:47.712Z,100.00
2022-09-12T19:34:17.017Z,100.00
2022-09-12T19:36:46.989Z,100.00
2022-09-12T19:39:17.355Z,100.00
2022-09-12T19:41:46.697Z,100.00
2022-09-12T19:44:15.382Z,100.00
2022-09-12T19:46:43.929Z,100.00
2022-09-12T19:49:13.995Z,100.00
2022-09-12T19:51:42.650Z,100.00
2022-09-12T19:54:11.312Z,100.00
2022-09-12T19:56:39.851Z,100.00
2022-09-12T19:59:08.420Z,100.00
2022-09-12T20:01:38.116Z,100.00
2022-09-12T20:04:07.601Z,100.00
2022-09-12T20:06:36.647Z,100.00
2022-09-12T20:09:05.651Z,100.00
2022-09-12T20:11:34.226Z,100.00
2022-09-12T20:14:03.139Z,100.00
2022-09-12T20:16:32.170Z,100.00
2022-09-12T20:19:08.161Z,100.00
2022-09-12T20:21:37.796Z,100.00
2022-09-12T20:24:09.321Z,100.00
2022-09-12T20:26:37.927Z,100.00
2022-09-12T20:29:08.044Z,100.00
2022-09-12T20:31:38.818Z,100.00
2022-09-12T20:34:08.743Z,100.00
2022-09-12T20:36:37.198Z,100.00
2022-09-12T20:39:06.074Z,100.00
2022-09-12T20:41:39.287Z,100.00
2022-09-12T20:44:07.823Z,100.00
2022-09-12T20:46:36.336Z,100.00
2022-09-12T20:49:05.496Z,100.00
2022-09-12T20:51:34.231Z,100.00
2022-09-12T20:54:05.657Z,100.00
2022-09-12T20:56:36.510Z,100.00
2022-09-12T20:59:06.269Z,100.00
2022-09-12T21:01:35.562Z,100.00
2022-09-12T21:04:04.394Z,100.00
2022-09-12T21:06:33.153Z,100.00
2022-09-12T21:09:01.600Z,100.00
2022-09-12T21:11:30.377Z,100.00
2022-09-12T21:13:59.391Z,100.00
2022-09-12T21:16:28.609Z,100.00
2022-09-12T21:18:59.759Z,100.00
2022-09-12T21:21:28.547Z,100.00
2022-09-12T21:24:04.021Z,100.00
2022-09-12T21:26:33.483Z,100.00
2022-09-12T21:29:02.083Z,100.00
2022-09-12T21:31:31.635Z,100.00
2022-09-12T21:34:00.195Z,100.00
2022-09-12T21:36:28.711Z,100.00
2022-09-12T21:39:00.296Z,100.00
2022-09-12T21:41:29.899Z,100.00
2022-09-12T21:43:58.387Z,100.00
2022-09-12T21:46:27.166Z,100.00
2022-09-12T21:48:55.750Z,100.00
2022-09-12T21:51:24.272Z,100.00
2022-09-12T21:53:52.751Z,100.00
2022-09-12T21:56:21.296Z,100.00
2022-09-12T21:58:49.823Z,100.00
2022-09-12T22:01:18.534Z,100.00
2022-09-12T22:03:47.201Z,100.00
2022-09-12T22:06:17.765Z,100.00
2022-09-12T22:08:49.093Z,100.00
2022-09-12T22:11:20.080Z,100.00
2022-09-12T22:13:48.669Z,100.00
2022-09-12T22:16:18.820Z,100.00
2022-09-12T22:18:51.737Z,100.00
2022-09-12T22:21:23.126Z,100.00
2022-09-12T22:24:10.479Z,100.00
2022-09-12T22:26:44.719Z,100.00
2022-09-12T22:29:16.949Z,100.00
2022-09-12T22:31:45.660Z,100.00
2022-09-12T22:34:14.364Z,100.00
2022-09-12T22:36:43.142Z,100.00
2022-09-12T22:39:12.159Z,100.00
2022-09-12T22:41:40.736Z,100.00
2022-09-12T22:44:09.306Z,100.00
2022-09-12T22:46:38.970Z,100.00
2022-09-12T22:49:08.602Z,100.00
2022-09-12T22:51:37.334Z,100.00
2022-09-12T22:54:06.800Z,100.00
2022-09-12T22:56:35.386Z,100.00
2022-09-12T22:59:03.851Z,100.00
2022-09-12T23:01:32.918Z,100.00
2022-09-12T23:04:02.156Z,100.00
2022-09-12T23:06:30.689Z,100.00
2022-09-12T23:08:59.215Z,100.00
2022-09-12T23:11:28.780Z,100.00
2022-09-12T23:13:57.288Z,100.00
2022-09-12T23:16:27.877Z,100.00
2022-09-12T23:18:56.449Z,100.00
2022-09-12T23:21:25.568Z,100.00
2022-09-12T23:23:54.072Z,100.00
2022-09-12T23:26:29.315Z,100.00
2022-09-12T23:29:03.077Z,100.00
2022-09-12T23:31:33.377Z,100.00
2022-09-12T23:34:04.426Z,100.00
2022-09-12T23:36:33.442Z,100.00
2022-09-12T23:39:01.990Z,100.00
2022-09-12T23:41:30.624Z,100.00
2022-09-12T23:43:59.299Z,100.00
2022-09-12T23:46:28.075Z,100.00
2022-09-12T23:48:56.583Z,100.00
2022-09-12T23:51:25.070Z,100.00
2022-09-12T23:53:53.575Z,100.00
2022-09-12T23:56:23.200Z,100.00
2022-09-12T23:58:51.755Z,100.00
